Time;durP1;ratioP1;P1;durP2;ratioP2;P2;SDS_P1;SDS_P2;PMS_P1;PMS_P2;Temp;Humidity;BMP_temperature;BMP_pressure;BME280_temperature;BME280_humidity;BME280_pressure;Samples;Min_cycle;Max_cycle;Signal;HPM_P1;HPM_P2
2023/05/16 00:00:24;;;;;;;8.50;3.07;;;;;;;13.86;70.21;100058.03;5076256;28;20032;-68
2023/05/16 00:02:50;;;;;;;11.32;2.60;;;;;;;13.84;70.10;100052.78;5080401;28;20042;-69
2023/05/16 00:05:16;;;;;;;7.40;2.60;;;;;;;13.84;70.31;100044.84;5078460;28;20104;-69
2023/05/16 00:07:43;;;;;;;9.82;3.50;;;;;;;13.83;70.57;100043.09;5084959;28;20052;-69
2023/05/16 00:10:10;;;;;;;9.80;2.85;;;;;;;13.83;70.59;100050.16;5075097;28;20063;-68
2023/05/16 00:12:38;;;;;;;6.75;2.60;;;;;;;13.81;70.58;100050.19;5076585;28;20024;-69
2023/05/16 00:15:05;;;;;;;11.25;3.28;;;;;;;13.80;70.85;100056.41;5076377;28;20115;-68
2023/05/16 00:17:31;;;;;;;11.70;3.00;;;;;;;13.80;70.87;100053.75;5076300;28;20035;-69
2023/05/16 00:19:57;;;;;;;9.20;2.97;;;;;;;13.81;70.80;100055.50;5076296;28;20017;-69
2023/05/16 00:22:26;;;;;;;9.33;2.93;;;;;;;13.80;71.04;100050.22;5084904;28;20435;-69
2023/05/16 00:24:51;;;;;;;12.93;3.20;;;;;;;13.80;71.06;100050.22;5074995;28;20021;-69
2023/05/16 00:27:16;;;;;;;13.00;3.50;;;;;;;13.76;71.17;100042.34;5076534;28;20036;-69
2023/05/16 00:29:42;;;;;;;9.73;3.40;;;;;;;13.74;71.35;100044.16;5076269;28;20020;-69
2023/05/16 00:32:08;;;;;;;12.53;3.60;;;;;;;13.74;71.35;100043.28;5074570;28;20450;-69
2023/05/16 00:34:34;;;;;;;8.32;2.67;;;;;;;13.73;71.38;100045.06;5077265;28;20039;-68
2023/05/16 00:37:00;;;;;;;11.55;3.25;;;;;;;13.73;71.35;100042.41;5085048;28;20500;-69
2023/05/16 00:39:26;;;;;;;9.80;2.77;;;;;;;13.74;71.38;100037.97;5100428;28;20123;-69
2023/05/16 00:41:52;;;;;;;9.20;3.13;;;;;;;13.71;71.50;100028.34;5085251;28;20103;-69
2023/05/16 00:44:17;;;;;;;10.35;3.28;;;;;;;13.70;71.52;100021.31;5078774;28;20028;-68
2023/05/16 00:46:42;;;;;;;12.27;3.20;;;;;;;13.68;71.47;100025.78;5079717;28;20024;-68
2023/05/16 00:49:09;;;;;;;11.40;3.20;;;;;;;13.68;71.61;100025.78;5079996;28;20048;-69
2023/05/16 00:51:35;;;;;;;11.00;3.37;;;;;;;13.67;71.62;100015.22;5079941;28;20263;-69
2023/05/16 00:54:01;;;;;;;12.13;3.45;;;;;;;13.66;71.71;100027.56;5079892;28;20025;-69
2023/05/16 00:56:27;;;;;;;9.35;2.92;;;;;;;13.64;71.79;100026.75;5080058;28;20028;-69
2023/05/16 00:58:53;;;;;;;10.93;3.17;;;;;;;13.62;71.59;100018.81;5080331;28;20477;-69
2023/05/16 01:01:22;;;;;;;10.73;3.50;;;;;;;13.60;71.73;100019.75;5079969;28;20028;-69
2023/05/16 01:03:48;;;;;;;12.95;3.50;;;;;;;13.60;71.59;100019.75;5079582;28;20028;-69
2023/05/16 01:06:14;;;;;;;9.97;3.00;;;;;;;13.61;71.55;100011.78;5091187;28;20052;-68
2023/05/16 01:08:40;;;;;;;10.05;3.20;;;;;;;13.60;71.67;100014.44;5078432;28;20032;-68
2023/05/16 01:11:17;;;;;;;9.00;3.10;;;;;;;13.59;71.64;100013.59;5079609;28;20031;-69
2023/05/16 01:14:11;;;;;;;11.13;3.47;;;;;;;13.58;71.62;100005.69;5079546;28;20047;-69
2023/05/16 01:16:45;;;;;;;13.18;3.53;;;;;;;13.56;71.76;100005.72;5087591;28;20031;-68
2023/05/16 01:19:39;;;;;;;10.07;3.47;;;;;;;13.49;71.87;100002.34;5099526;28;20028;-69
2023/05/16 01:22:27;;;;;;;9.40;3.63;;;;;;;13.45;72.00;99999.78;5007620;28;20030;-69
2023/05/16 01:24:56;;;;;;;9.80;3.37;;;;;;;13.45;71.91;100016.53;5079516;28;20025;-69
2023/05/16 01:27:23;;;;;;;9.38;3.70;;;;;;;13.42;72.05;100010.38;5077950;28;20024;-68
2023/05/16 01:29:55;;;;;;;8.20;3.45;;;;;;;13.42;71.96;100005.97;5079208;28;20103;-69
2023/05/16 01:32:23;;;;;;;11.40;3.35;;;;;;;13.42;72.22;100005.09;5089503;28;20055;-69
2023/05/16 01:34:53;;;;;;;12.70;3.70;;;;;;;13.42;72.22;100005.09;5098357;28;20024;-69
2023/05/16 01:37:34;;;;;;;9.17;3.50;;;;;;;13.39;72.38;100006.03;5085273;28;20472;-69
2023/05/16 01:40:08;;;;;;;8.68;3.13;;;;;;;13.37;72.53;100002.53;5098101;28;20020;-69
2023/05/16 01:42:38;;;;;;;8.95;3.40;;;;;;;13.35;72.74;100009.63;5079250;28;20020;-69
2023/05/16 01:45:25;;;;;;;9.40;3.40;;;;;;;13.32;72.66;100013.22;5076828;28;20024;-69
2023/05/16 01:48:07;;;;;;;13.07;3.38;;;;;;;13.28;72.94;100013.31;5078823;28;20505;-69
2023/05/16 01:50:37;;;;;;;13.87;3.30;;;;;;;13.27;73.04;100011.56;5078975;28;20020;-68
2023/05/16 01:53:08;;;;;;;9.32;3.35;;;;;;;13.26;73.13;100010.72;5078959;28;20021;-69
2023/05/16 01:55:48;;;;;;;11.10;3.65;;;;;;;13.19;73.74;100004.66;5077727;28;20027;-69
2023/05/16 01:58:16;;;;;;;11.25;3.58;;;;;;;13.23;73.48;100009.88;5079671;28;20027;-69
2023/05/16 02:00:42;;;;;;;8.73;3.70;;;;;;;13.21;73.78;100004.59;5078832;28;20028;-69
2023/05/16 02:03:08;;;;;;;7.43;3.27;;;;;;;13.21;73.39;100001.97;5079648;28;20021;-69
2023/05/16 02:05:33;;;;;;;9.75;3.38;;;;;;;13.18;73.70;99997.63;5087138;28;20083;-69
2023/05/16 02:07:59;;;;;;;9.82;4.00;;;;;;;13.17;73.86;100010.84;5081039;28;20375;-69
2023/05/16 02:10:26;;;;;;;12.00;3.90;;;;;;;13.14;74.03;100006.53;5077367;28;20555;-69
2023/05/16 02:12:51;;;;;;;10.55;3.70;;;;;;;13.14;73.89;100005.63;5080383;28;20036;-69
2023/05/16 02:15:17;;;;;;;15.27;4.13;;;;;;;13.11;74.27;100003.91;5078316;28;20028;-69
2023/05/16 02:17:43;;;;;;;12.25;3.60;;;;;;;13.08;74.41;100001.31;5077093;28;20034;-70
2023/05/16 02:20:10;;;;;;;12.07;4.25;;;;;;;13.07;74.48;100004.88;5078530;28;20035;-69
2023/05/16 02:22:36;;;;;;;10.10;3.90;;;;;;;13.06;74.52;100000.50;5084480;28;20025;-69
2023/05/16 02:25:02;;;;;;;9.50;3.73;;;;;;;13.05;74.63;99999.63;5078576;28;20054;-69
2023/05/16 02:27:28;;;;;;;13.13;4.53;;;;;;;13.03;74.67;100003.19;5080865;28;20028;-69
2023/05/16 02:29:54;;;;;;;12.23;4.15;;;;;;;13.01;75.12;99997.06;5098241;28;20061;-69
2023/05/16 02:32:20;;;;;;;8.83;3.77;;;;;;;12.99;75.03;99998.88;5094462;28;20087;-69
2023/05/16 02:34:45;;;;;;;8.73;3.65;;;;;;;12.97;74.83;99998.03;5076919;28;20058;-69
2023/05/16 02:37:11;;;;;;;10.43;3.83;;;;;;;12.97;75.06;99990.09;5094985;28;20095;-69
2023/05/16 02:39:36;;;;;;;9.53;3.50;;;;;;;12.98;75.09;99997.97;5098426;28;20540;-69
2023/05/16 02:42:03;;;;;;;9.68;4.07;;;;;;;12.99;74.98;99998.88;5081452;28;20419;-70
2023/05/16 02:44:28;;;;;;;11.33;3.97;;;;;;;12.96;75.17;99991.84;5078146;28;20118;-69
2023/05/16 02:46:54;;;;;;;10.15;3.70;;;;;;;12.95;75.43;99994.53;5077543;28;20028;-69
2023/05/16 02:49:19;;;;;;;11.60;4.00;;;;;;;12.95;75.13;99994.53;5077566;28;20055;-69
2023/05/16 02:51:45;;;;;;;12.73;4.20;;;;;;;12.92;75.20;99998.09;5088869;28;20488;-69
2023/05/16 02:54:11;;;;;;;13.17;3.67;;;;;;;12.93;75.17;99997.19;5077849;28;20020;-69
2023/05/16 02:56:36;;;;;;;9.23;3.70;;;;;;;12.91;74.97;99993.72;5077946;28;20067;-69
2023/05/16 02:59:03;;;;;;;13.33;4.27;;;;;;;12.89;75.57;99996.38;5079028;28;20031;-69
2023/05/16 03:01:28;;;;;;;12.50;3.70;;;;;;;12.89;75.36;99996.38;5081259;28;20059;-69
2023/05/16 03:03:54;;;;;;;8.60;4.10;;;;;;;12.86;75.41;99996.44;5097705;28;20106;-69
2023/05/16 03:06:19;;;;;;;11.90;4.00;;;;;;;12.87;75.35;99989.38;5090860;28;20103;-69
2023/05/16 03:08:46;;;;;;;14.80;3.97;;;;;;;12.88;75.34;99984.06;5076161;28;20020;-69
2023/05/16 03:11:11;;;;;;;10.40;3.92;;;;;;;12.89;75.24;99985.81;5077491;28;20032;-69
2023/05/16 03:13:37;;;;;;;9.73;3.90;;;;;;;12.88;75.32;99984.06;5077276;28;20025;-69
2023/05/16 03:16:02;;;;;;;8.83;3.70;;;;;;;12.86;75.37;99980.56;5075567;28;20392;-69
2023/05/16 03:18:28;;;;;;;8.55;4.40;;;;;;;12.84;75.21;99977.09;5077437;28;20024;-69
2023/05/16 03:20:53;;;;;;;10.23;3.50;;;;;;;12.83;75.19;99985.91;5082613;28;20016;-69
2023/05/16 03:23:20;;;;;;;8.30;3.90;;;;;;;12.82;75.58;99984.19;5075927;28;20024;-69
2023/05/16 03:25:45;;;;;;;12.15;3.60;;;;;;;12.80;75.29;99970.13;5094773;28;20024;-69
2023/05/16 03:28:11;;;;;;;9.95;3.97;;;;;;;12.77;75.49;99973.69;5077133;28;20488;-69
2023/05/16 03:30:37;;;;;;;8.93;3.87;;;;;;;12.77;75.44;99975.47;5076850;28;20095;-69
2023/05/16 03:33:03;;;;;;;11.82;4.05;;;;;;;12.79;75.18;99981.59;5083007;28;20021;-69
2023/05/16 03:35:32;;;;;;;8.15;3.60;;;;;;;12.81;75.13;99976.28;5078539;28;20020;-69
2023/05/16 03:37:58;;;;;;;8.07;3.50;;;;;;;12.82;75.17;99973.59;5097288;28;20426;-69
2023/05/16 03:40:23;;;;;;;10.48;3.85;;;;;;;12.83;75.08;99985.91;5094201;28;20028;-70
2023/05/16 03:42:48;;;;;;;9.33;3.63;;;;;;;12.82;75.13;99986.81;5077094;28;20081;-69
2023/05/16 03:45:14;;;;;;;7.53;2.93;;;;;;;12.81;75.31;99992.16;5076485;28;20111;-69
2023/05/16 03:47:40;;;;;;;10.82;3.40;;;;;;;12.80;75.42;99985.97;5076841;28;20044;-69
2023/05/16 03:50:06;;;;;;;8.10;3.67;;;;;;;12.78;75.24;99979.84;5075785;28;20036;-69
2023/05/16 03:52:32;;;;;;;7.75;3.60;;;;;;;12.80;75.38;100000.97;5076913;28;20477;-69
2023/05/16 03:54:58;;;;;;;8.93;3.55;;;;;;;12.79;75.27;99986.88;5076801;28;20048;-69
2023/05/16 03:57:23;;;;;;;8.57;3.57;;;;;;;12.81;75.30;99992.16;5075381;28;20496;-69
2023/05/16 03:59:49;;;;;;;7.03;3.63;;;;;;;12.79;75.46;99986.88;5077104;28;20033;-69
2023/05/16 04:02:14;;;;;;;10.20;3.38;;;;;;;12.77;75.27;99980.75;5085511;28;20060;-69
2023/05/16 04:04:40;;;;;;;9.97;3.40;;;;;;;12.74;75.28;99980.81;5095706;28;20058;-69
2023/05/16 04:07:06;;;;;;;7.35;3.30;;;;;;;12.74;75.27;99980.81;5082703;28;20047;-69
2023/05/16 04:09:31;;;;;;;9.97;3.27;;;;;;;12.74;75.54;99988.72;5076230;28;20032;-69
2023/05/16 04:11:57;;;;;;;9.70;3.60;;;;;;;12.71;75.49;99986.16;5076848;28;20056;-69
2023/05/16 04:14:23;;;;;;;6.50;3.07;;;;;;;12.73;75.46;99989.63;5076410;28;20266;-68
2023/05/16 04:16:49;;;;;;;7.80;3.40;;;;;;;12.72;75.34;99990.53;5076629;28;20050;-69
2023/05/16 04:19:14;;;;;;;6.73;2.97;;;;;;;12.74;75.41;99980.81;5076819;28;20111;-68
2023/05/16 04:21:40;;;;;;;10.27;3.10;;;;;;;12.75;75.28;99982.56;5084292;28;20044;-69
2023/05/16 04:24:06;;;;;;;8.25;3.55;;;;;;;12.73;75.28;99979.06;5092699;28;20032;-69
2023/05/16 04:26:32;;;;;;;8.32;3.30;;;;;;;12.73;75.33;99984.34;5096972;28;20032;-68
2023/05/16 04:28:57;;;;;;;9.30;3.20;;;;;;;12.70;75.15;99984.41;5095195;28;20170;-68
2023/05/16 04:31:25;;;;;;;7.20;3.00;;;;;;;12.67;75.08;99987.97;5096028;28;20028;-69
2023/05/16 04:33:51;;;;;;;9.25;3.45;;;;;;;12.67;75.19;99987.09;5076322;28;20476;-69
2023/05/16 04:36:16;;;;;;;6.50;2.78;;;;;;;12.63;75.30;99984.50;5088143;28;20365;-69
2023/05/16 04:38:42;;;;;;;7.47;2.70;;;;;;;12.66;75.35;99991.50;5096659;28;20032;-69
2023/05/16 04:41:08;;;;;;;6.97;3.15;;;;;;;12.67;75.07;99990.59;5087328;28;20033;-69
2023/05/16 04:43:33;;;;;;;7.50;2.87;;;;;;;12.64;75.32;99986.22;5076416;28;20032;-69
2023/05/16 04:46:00;;;;;;;6.28;2.90;;;;;;;12.63;75.21;99995.06;5076060;28;20469;-69
2023/05/16 04:48:25;;;;;;;7.00;2.95;;;;;;;12.65;75.17;99989.75;5074868;28;20113;-69
2023/05/16 04:50:51;;;;;;;7.53;3.00;;;;;;;12.65;75.29;99997.69;5076444;28;20068;-69
2023/05/16 04:53:17;;;;;;;7.60;2.70;;;;;;;12.65;75.38;99997.69;5076566;28;20096;-69
2023/05/16 04:55:42;;;;;;;6.27;2.50;;;;;;;12.66;74.94;99993.25;5076400;28;20058;-69
2023/05/16 04:58:08;;;;;;;6.57;2.70;;;;;;;12.67;75.30;99997.69;5083650;28;20020;-69
2023/05/16 05:00:33;;;;;;;5.55;2.67;;;;;;;12.69;75.26;99995.88;5085379;28;20060;-69
2023/05/16 05:02:59;;;;;;;6.87;2.40;;;;;;;12.68;75.06;99996.78;5076194;28;20040;-69
2023/05/16 05:05:24;;;;;;;7.75;2.90;;;;;;;12.69;75.34;99998.53;5081726;28;20035;-69
2023/05/16 05:07:51;;;;;;;8.57;2.87;;;;;;;12.71;74.99;99996.72;5079833;28;20033;-69
2023/05/16 05:10:17;;;;;;;5.80;2.60;;;;;;;12.72;74.91;100009.88;5076247;28;20492;-69
2023/05/16 05:12:42;;;;;;;5.30;2.33;;;;;;;12.74;74.93;100007.22;5075997;28;20032;-69
2023/05/16 05:15:08;;;;;;;6.53;2.30;;;;;;;12.73;75.13;100005.50;5075859;28;20021;-69
2023/05/16 05:17:33;;;;;;;7.57;2.77;;;;;;;12.73;75.24;100000.22;5088245;28;20047;-69
2023/05/16 05:19:59;;;;;;;5.85;2.17;;;;;;;12.73;75.04;100010.78;5096306;28;20028;-69
2023/05/16 05:22:24;;;;;;;9.33;2.90;;;;;;;12.74;75.29;100010.72;5084131;28;20029;-69
2023/05/16 05:24:50;;;;;;;6.57;2.43;;;;;;;12.74;75.00;100008.09;5079716;28;20033;-69
2023/05/16 05:27:16;;;;;;;7.60;2.83;;;;;;;12.74;75.35;100007.22;5079541;28;20028;-69
2023/05/16 05:29:41;;;;;;;6.73;2.30;;;;;;;12.74;75.02;100012.50;5079502;28;20103;-69
2023/05/16 05:32:07;;;;;;;6.30;2.42;;;;;;;12.72;75.28;100011.66;5083704;28;20020;-69
2023/05/16 05:34:32;;;;;;;6.20;2.33;;;;;;;12.70;75.41;100011.69;5086588;28;20051;-69
2023/05/16 05:36:58;;;;;;;6.97;2.53;;;;;;;12.68;75.44;100013.47;5090003;28;20437;-69
2023/05/16 05:39:25;;;;;;;5.90;2.58;;;;;;;12.71;75.40;100008.16;5099492;28;20035;-69
2023/05/16 05:41:51;;;;;;;5.32;2.00;;;;;;;12.77;75.19;100023.03;5084207;28;20043;-69
2023/05/16 05:44:16;;;;;;;5.80;2.50;;;;;;;12.77;75.35;100023.03;5079498;28;20024;-69
2023/05/16 05:46:42;;;;;;;6.53;2.03;;;;;;;12.78;75.44;100027.41;5079037;28;20033;-69
2023/05/16 05:49:08;;;;;;;7.28;2.50;;;;;;;12.76;76.01;100030.06;5079125;28;20123;-69
2023/05/16 05:51:34;;;;;;;6.50;2.60;;;;;;;12.74;75.95;100028.38;5081647;28;20035;-68
2023/05/16 05:54:01;;;;;;;5.55;2.38;;;;;;;12.74;75.99;100033.66;5082131;28;20027;-68
2023/05/16 05:56:27;;;;;;;7.63;2.95;;;;;;;12.72;76.21;100038.09;5082496;28;20029;-70
2023/05/16 05:58:53;;;;;;;6.60;2.67;;;;;;;12.70;76.22;100031.97;5078776;28;20086;-69
2023/05/16 06:01:20;;;;;;;6.63;2.85;;;;;;;12.68;76.47;100025.84;5081106;28;20023;-67
2023/05/16 06:03:46;;;;;;;5.40;2.33;;;;;;;12.68;76.38;100033.75;5087514;28;20032;-67
2023/05/16 06:06:13;;;;;;;7.13;2.53;;;;;;;12.68;76.31;100031.97;5090969;28;20365;-71
2023/05/16 06:08:39;;;;;;;5.78;2.58;;;;;;;12.71;76.54;100029.28;5077487;28;20017;-72
2023/05/16 06:11:05;;;;;;;5.68;2.38;;;;;;;12.72;76.44;100043.38;5078552;28;20039;-70
2023/05/16 06:13:30;;;;;;;5.10;2.50;;;;;;;12.71;76.62;100039.84;5079097;28;20033;-70
2023/05/16 06:15:56;;;;;;;7.63;2.50;;;;;;;12.72;76.38;100046.03;5093572;28;20476;-70
2023/05/16 06:18:21;;;;;;;5.32;2.13;;;;;;;12.72;76.41;100046.03;5094837;28;20158;-70
2023/05/16 06:20:47;;;;;;;4.90;2.23;;;;;;;12.74;76.58;100041.56;5085722;28;20031;-71
2023/05/16 06:23:13;;;;;;;5.90;2.60;;;;;;;12.73;76.87;100042.47;5087046;28;20023;-71
2023/05/16 06:25:38;;;;;;;4.97;2.60;;;;;;;12.71;76.65;100039.84;5088299;28;20036;-71
2023/05/16 06:28:04;;;;;;;5.57;2.50;;;;;;;12.72;76.74;100040.72;5084796;28;20395;-70
2023/05/16 06:30:29;;;;;;;9.82;4.07;;;;;;;12.75;76.91;100040.69;5084408;28;20115;-69
2023/05/16 06:32:55;;;;;;;7.63;3.00;;;;;;;12.78;77.11;100037.97;5082449;28;20024;-70
2023/05/16 06:35:22;;;;;;;7.05;2.47;;;;;;;12.81;76.58;100034.44;5087273;28;20020;-72
2023/05/16 06:37:47;;;;;;;7.40;2.90;;;;;;;12.85;76.83;100036.97;5096932;28;20024;-74
2023/05/16 06:40:13;;;;;;;6.30;2.67;;;;;;;12.90;76.67;100037.78;5094805;28;20031;-72
2023/05/16 06:42:38;;;;;;;6.87;3.10;;;;;;;12.96;76.75;100035.94;5088242;28;20025;-71
2023/05/16 06:45:05;;;;;;;6.82;2.78;;;;;;;13.00;76.40;100030.53;5077976;28;20058;-71
2023/05/16 06:47:30;;;;;;;6.60;2.53;;;;;;;13.05;76.49;100035.75;5080532;28;20037;-72
2023/05/16 06:49:56;;;;;;;6.55;3.13;;;;;;;13.09;76.61;100034.78;5092844;28;20105;-72
2023/05/16 06:52:22;;;;;;;9.77;3.30;;;;;;;13.11;76.74;100037.41;5097017;28;20032;-72
2023/05/16 06:54:47;;;;;;;8.55;3.05;;;;;;;13.15;76.45;100045.28;5095143;28;20051;-71
2023/05/16 06:57:16;;;;;;;5.57;2.67;;;;;;;13.20;76.49;100048.69;5077432;28;20078;-71
2023/05/16 06:59:42;;;;;;;8.43;3.03;;;;;;;13.25;76.15;100050.38;5077234;28;20074;-72
2023/05/16 07:02:08;;;;;;;8.15;3.30;;;;;;;13.30;76.32;100048.53;5085023;28;20033;-72
2023/05/16 07:04:35;;;;;;;7.87;3.23;;;;;;;13.31;76.36;100052.91;5079940;28;20016;-72
2023/05/16 07:07:00;;;;;;;6.25;2.97;;;;;;;13.32;76.11;100052.00;5088782;28;20475;-72
2023/05/16 07:09:26;;;;;;;8.80;3.00;;;;;;;13.33;76.14;100048.47;5085797;28;20027;-71
2023/05/16 07:11:52;;;;;;;6.93;3.20;;;;;;;13.33;76.08;100048.47;5096190;28;20020;-72
2023/05/16 07:14:17;;;;;;;6.35;3.15;;;;;;;13.32;76.30;100050.25;5078526;28;20021;-71
2023/05/16 07:16:43;;;;;;;7.13;3.50;;;;;;;13.34;76.17;100050.19;5076603;28;20028;-72
2023/05/16 07:19:08;;;;;;;6.40;2.87;;;;;;;13.34;76.24;100052.84;5076015;28;20023;-72
2023/05/16 07:21:34;;;;;;;7.38;3.20;;;;;;;13.34;76.31;100058.13;5080110;28;20047;-72
2023/05/16 07:24:00;;;;;;;9.80;3.57;;;;;;;13.38;76.05;100054.53;5075638;28;20028;-72
2023/05/16 07:26:25;;;;;;;7.45;3.17;;;;;;;13.42;75.75;100056.22;5079918;28;20027;-72
2023/05/16 07:28:51;;;;;;;6.23;2.80;;;;;;;13.41;75.74;100062.44;5081478;28;20032;-72
2023/05/16 07:31:17;;;;;;;10.07;2.97;;;;;;;13.44;75.53;100057.09;5075916;28;20013;-72
2023/05/16 07:33:45;;;;;;;8.77;2.97;;;;;;;13.46;75.32;100060.59;5096806;28;20027;-72
2023/05/16 07:36:12;;;;;;;7.53;3.63;;;;;;;13.48;76.00;100064.06;5096709;28;20089;-73
2023/05/16 07:38:38;;;;;;;8.70;3.25;;;;;;;13.51;75.50;100060.50;5095964;28;20518;-73
2023/05/16 07:41:03;;;;;;;9.30;3.10;;;;;;;13.54;75.34;100068.38;5088971;28;20024;-72
2023/05/16 07:43:29;;;;;;;6.60;3.20;;;;;;;13.56;75.24;100063.03;5076586;28;20031;-73
2023/05/16 07:45:54;;;;;;;7.45;3.30;;;;;;;13.54;74.99;100063.09;5086493;28;20575;-72
2023/05/16 07:48:20;;;;;;;7.07;3.23;;;;;;;13.58;75.08;100072.72;5074899;28;20487;-73
2023/05/16 07:50:46;;;;;;;7.57;2.78;;;;;;;13.59;75.01;100070.91;5076987;28;20039;-73
2023/05/16 07:53:11;;;;;;;9.73;3.03;;;;;;;13.61;74.69;100074.41;5077327;28;20031;-73
2023/05/16 07:55:37;;;;;;;6.25;2.78;;;;;;;13.64;74.71;100071.72;5086624;28;20016;-73
2023/05/16 07:58:03;;;;;;;6.33;2.97;;;;;;;13.66;74.02;100069.03;5091598;28;20039;-73
2023/05/16 08:00:29;;;;;;;6.10;2.80;;;;;;;13.65;74.14;100065.53;5087654;28;20374;-72
2023/05/16 08:02:57;;;;;;;5.78;2.60;;;;;;;13.70;74.03;100078.66;5077157;28;20029;-73
2023/05/16 08:05:23;;;;;;;8.17;3.07;;;;;;;13.74;74.00;100073.28;5079371;28;20485;-73
2023/05/16 08:07:48;;;;;;;6.53;2.72;;;;;;;13.84;73.78;100070.41;5083411;28;20017;-72
2023/05/16 08:10:14;;;;;;;5.23;2.70;;;;;;;13.92;73.75;100079.94;5095566;28;20036;-73
2023/05/16 08:12:40;;;;;;;6.25;2.95;;;;;;;14.02;73.70;100075.34;5081770;28;20115;-74
2023/05/16 08:15:06;;;;;;;5.93;2.43;;;;;;;14.09;73.57;100083.13;5075664;28;20470;-74
2023/05/16 08:17:32;;;;;;;5.28;2.55;;;;;;;14.15;72.95;100085.69;5076536;28;20021;-71
2023/05/16 08:20:00;;;;;;;7.57;2.80;;;;;;;14.20;72.79;100076.69;5076527;28;20384;-71
2023/05/16 08:22:26;;;;;;;7.05;2.55;;;;;;;14.29;72.61;100074.78;5080465;28;20024;-71
2023/05/16 08:24:51;;;;;;;5.68;2.10;;;;;;;14.33;71.76;100079.09;5076902;28;20103;-71
2023/05/16 08:27:17;;;;;;;5.50;2.33;;;;;;;14.38;71.60;100071.06;5075798;28;20099;-71
2023/05/16 08:29:43;;;;;;;5.22;2.20;;;;;;;14.61;71.19;100070.50;5077177;28;20031;-71
2023/05/16 08:32:09;;;;;;;4.40;1.90;;;;;;;14.82;70.45;100069.13;5084166;28;20024;-71
2023/05/16 08:34:35;;;;;;;5.15;2.25;;;;;;;14.97;69.65;100064.34;5097173;28;20031;-71
2023/05/16 08:37:01;;;;;;;4.88;1.95;;;;;;;15.03;68.77;100073.03;5095252;28;20043;-71
2023/05/16 08:39:27;;;;;;;7.30;2.37;;;;;;;15.11;68.59;100061.34;5097018;28;20054;-71
2023/05/16 08:41:52;;;;;;;5.93;2.33;;;;;;;15.11;67.47;100064.88;5080321;28;20587;-72
2023/05/16 08:44:20;;;;;;;4.55;1.85;;;;;;;15.28;67.68;100055.59;5088432;28;20020;-71
2023/05/16 08:46:53;;;;;;;5.53;1.92;;;;;;;15.53;66.93;100049.59;5076489;28;20096;-72
2023/05/16 08:49:19;;;;;;;3.95;1.50;;;;;;;15.79;66.93;100059.47;5086205;28;20048;-72
2023/05/16 08:51:46;;;;;;;5.40;2.00;;;;;;;15.86;66.32;100060.19;5083616;28;20496;-71
2023/05/16 08:54:13;;;;;;;5.63;2.03;;;;;;;15.77;66.26;100063.97;5082331;28;20085;-71
2023/05/16 08:56:41;;;;;;;8.85;2.42;;;;;;;15.65;66.08;100060.75;5082084;28;20111;-72
2023/05/16 08:59:07;;;;;;;4.50;1.95;;;;;;;15.56;66.52;100068.97;5080829;28;20036;-71
2023/05/16 09:01:33;;;;;;;5.28;1.98;;;;;;;15.67;66.32;100060.72;5096062;28;20515;-72
2023/05/16 09:03:59;;;;;;;5.87;1.90;;;;;;;15.87;65.63;100069.88;5100844;28;20060;-72
2023/05/16 09:06:26;;;;;;;6.40;2.05;;;;;;;15.99;65.25;100056.25;5089656;28;20078;-72
2023/05/16 09:08:53;;;;;;;5.60;2.00;;;;;;;15.93;64.70;100065.31;5079811;28;20031;-72
2023/05/16 09:11:18;;;;;;;6.80;2.00;;;;;;;15.81;64.49;100067.41;5080110;28;20401;-72
2023/05/16 09:13:44;;;;;;;7.50;2.17;;;;;;;15.73;64.57;100063.19;5089704;28;20028;-72
2023/05/16 09:16:12;;;;;;;3.83;1.50;;;;;;;15.76;64.97;100065.75;5094925;28;20060;-72
2023/05/16 09:18:53;;;;;;;5.25;2.13;;;;;;;15.79;64.65;100059.47;5080288;28;20495;-72
2023/05/16 09:21:18;;;;;;;7.40;2.47;;;;;;;15.71;64.34;100065.00;5084040;28;20505;-72
2023/05/16 09:23:45;;;;;;;4.77;1.70;;;;;;;15.60;65.28;100065.31;5079745;28;20028;-71
2023/05/16 09:26:10;;;;;;;4.50;1.80;;;;;;;15.60;64.75;100072.41;5084954;28;20032;-71
2023/05/16 09:28:38;;;;;;;5.17;1.93;;;;;;;15.65;64.47;100078.47;5081094;28;20036;-72
2023/05/16 09:31:26;;;;;;;5.00;1.88;;;;;;;15.62;64.44;100083.88;5090787;28;20042;-72
2023/05/16 09:33:55;;;;;;;4.90;1.90;;;;;;;15.61;63.91;100076.81;5079726;28;20042;-72
2023/05/16 09:36:21;;;;;;;4.82;1.92;;;;;;;15.70;63.61;100076.53;5091295;28;20032;-72
2023/05/16 09:38:48;;;;;;;4.50;1.80;;;;;;;16.09;63.19;100078.09;5098307;28;20024;-72
2023/05/16 09:41:14;;;;;;;4.07;1.30;;;;;;;16.47;62.65;100078.72;5098428;28;20020;-72
2023/05/16 09:43:42;;;;;;;6.10;1.57;;;;;;;16.70;61.92;100074.47;5087609;28;20036;-73
2023/05/16 09:46:12;;;;;;;5.95;1.77;;;;;;;16.80;61.74;100075.03;5077284;28;20028;-72
2023/05/16 09:48:50;;;;;;;5.43;1.85;;;;;;;16.68;60.88;100078.06;5080412;28;20048;-73
2023/05/16 09:51:21;;;;;;;6.53;1.77;;;;;;;16.49;61.25;100076.00;5079667;28;20028;-72
2023/05/16 09:53:47;;;;;;;5.68;1.98;;;;;;;16.41;61.68;100078.03;5089475;28;20056;-75
2023/05/16 09:56:14;;;;;;;4.23;1.60;;;;;;;16.36;61.56;100075.53;5086119;28;20027;-72
2023/05/16 09:58:42;;;;;;;4.65;1.95;;;;;;;16.42;61.57;100069.16;5084791;28;20055;-72
2023/05/16 10:01:08;;;;;;;5.05;1.52;;;;;;;16.52;61.53;100069.72;5092835;28;20526;-72
2023/05/16 10:03:36;;;;;;;5.47;1.83;;;;;;;16.83;61.36;100072.28;5098196;28;20028;-72
2023/05/16 10:06:02;;;;;;;4.75;1.80;;;;;;;17.07;60.49;100073.25;5091786;28;20040;-72
2023/05/16 10:08:31;;;;;;;6.07;1.97;;;;;;;17.36;59.58;100067.84;5091255;28;20032;-72
2023/05/16 10:10:57;;;;;;;4.60;1.70;;;;;;;17.48;59.24;100067.41;5078797;28;20431;-72
2023/05/16 10:13:30;;;;;;;6.10;1.60;;;;;;;17.58;58.87;100067.94;5079017;28;20029;-73
2023/05/16 10:15:58;;;;;;;5.03;1.80;;;;;;;17.46;58.65;100065.72;5077304;28;20263;-72
2023/05/16 10:18:28;;;;;;;4.90;1.70;;;;;;;17.20;57.50;100068.38;5077486;28;20370;-72
2023/05/16 10:20:58;;;;;;;6.80;1.67;;;;;;;17.01;58.55;100069.94;5083853;28;20020;-72
2023/05/16 10:23:25;;;;;;;5.45;1.50;;;;;;;16.77;58.60;100069.81;5098196;28;20028;-72
2023/05/16 10:25:52;;;;;;;5.40;1.55;;;;;;;16.65;58.81;100073.75;5098827;28;20086;-72
2023/05/16 10:28:17;;;;;;;5.10;1.60;;;;;;;16.57;58.82;100079.31;5099274;28;20055;-72
2023/05/16 10:30:46;;;;;;;6.40;1.50;;;;;;;16.49;58.82;100082.22;5081542;28;20060;-72
2023/05/16 10:33:16;;;;;;;4.28;1.45;;;;;;;16.47;59.39;100073.41;5078825;28;20087;-71
2023/05/16 10:35:43;;;;;;;4.88;1.95;;;;;;;16.53;59.31;100071.47;5083882;28;20098;-71
2023/05/16 10:38:10;;;;;;;4.23;1.50;;;;;;;16.63;59.28;100073.78;5097308;28;20059;-71
2023/05/16 10:40:37;;;;;;;4.13;1.52;;;;;;;16.71;59.08;100067.34;5094354;28;20021;-72
2023/05/16 10:43:05;;;;;;;4.80;1.60;;;;;;;16.80;58.83;100080.34;5083824;28;20036;-72
2023/05/16 10:45:31;;;;;;;4.80;1.85;;;;;;;16.89;58.28;100073.88;5086472;28;20485;-72
2023/05/16 10:48:05;;;;;;;4.40;1.80;;;;;;;17.27;57.37;100066.38;5076686;28;20246;-72
2023/05/16 10:50:34;;;;;;;5.93;1.90;;;;;;;17.34;56.90;100064.38;5078007;28;20041;-73
2023/05/16 10:53:17;;;;;;;5.32;1.70;;;;;;;17.59;56.28;100063.50;5077261;28;20396;-72
2023/05/16 10:55:58;;;;;;;4.57;1.50;;;;;;;17.68;56.06;100052.47;5080138;28;20098;-72
2023/05/16 10:58:39;;;;;;;5.00;1.43;;;;;;;17.93;55.48;100059.56;5080463;28;20028;-72
2023/05/16 11:01:34;;;;;;;4.15;1.48;;;;;;;18.16;54.81;100047.16;5077160;28;20078;-73
2023/05/16 11:04:05;;;;;;;4.38;1.30;;;;;;;18.54;53.83;100049.22;5088937;28;20077;-72
2023/05/16 11:06:41;;;;;;;4.20;1.42;;;;;;;18.80;53.47;100045.50;5094493;28;20039;-73
2023/05/16 11:09:18;;;;;;;4.40;1.35;;;;;;;18.78;52.72;100053.56;5077919;28;20488;-72
2023/05/16 11:11:57;;;;;;;4.60;1.50;;;;;;;18.72;52.53;100060.97;5085121;28;20032;-72
2023/05/16 11:14:28;;;;;;;4.88;1.38;;;;;;;18.81;52.29;100057.91;5076881;28;20558;-72
2023/05/16 11:17:09;;;;;;;4.75;1.30;;;;;;;19.01;53.04;100061.56;5076414;28;20055;-72
2023/05/16 11:19:34;;;;;;;4.80;1.33;;;;;;;18.94;53.10;100060.94;5078590;28;20024;-72
2023/05/16 11:22:10;;;;;;;7.40;1.83;;;;;;;18.65;52.63;100058.53;5082606;28;20058;-72
2023/05/16 11:24:38;;;;;;;6.18;1.60;;;;;;;18.53;53.37;100064.38;5076190;28;20089;-72
2023/05/16 11:27:05;;;;;;;5.53;1.40;;;;;;;18.34;53.52;100057.13;5088316;28;20036;-73